createdAt,value
2023-02-08T00:00:53.953Z,91.41
2023-02-08T00:03:20.577Z,91.01
2023-02-08T00:05:47.123Z,91.10
2023-02-08T00:08:13.616Z,91.23
2023-02-08T00:10:40.548Z,91.04
2023-02-08T00:13:09.409Z,91.19
2023-02-08T00:15:40.535Z,90.78
2023-02-08T00:18:07.040Z,90.67
2023-02-08T00:20:33.601Z,90.82
2023-02-08T00:23:00.131Z,90.71
2023-02-08T00:25:26.588Z,90.95
2023-02-08T00:27:53.099Z,90.96
2023-02-08T00:30:19.678Z,90.96
2023-02-08T00:32:47.667Z,91.29
2023-02-08T00:35:14.430Z,91.47
2023-02-08T00:37:42.419Z,91.51
2023-02-08T00:40:10.969Z,91.37
2023-02-08T00:42:37.743Z,91.98
2023-02-08T00:45:05.021Z,91.94
2023-02-08T00:47:31.592Z,91.81
2023-02-08T00:49:59.740Z,92.19
2023-02-08T00:52:27.622Z,92.22
2023-02-08T00:54:54.278Z,92.12
2023-02-08T00:57:20.877Z,92.20
2023-02-08T00:59:47.850Z,92.46
2023-02-08T01:02:15.695Z,92.30
2023-02-08T01:04:42.224Z,92.25
2023-02-08T01:07:09.101Z,92.33
2023-02-08T01:09:37.555Z,92.27
2023-02-08T01:12:04.093Z,92.20
2023-02-08T01:14:30.822Z,92.47
2023-02-08T01:16:58.633Z,92.15
2023-02-08T01:19:25.122Z,91.89
2023-02-08T01:21:51.693Z,92.41
2023-02-08T01:24:18.166Z,92.53
2023-02-08T01:26:44.684Z,92.19
2023-02-08T01:29:11.569Z,92.65
2023-02-08T01:31:40.914Z,92.65
2023-02-08T01:34:09.073Z,92.73
2023-02-08T01:36:36.136Z,92.89
2023-02-08T01:39:04.151Z,92.81
2023-02-08T01:41:36.712Z,92.91
2023-02-08T01:44:11.930Z,92.85
2023-02-08T01:46:41.007Z,92.80
2023-02-08T01:49:14.135Z,92.74
2023-02-08T01:51:46.937Z,92.54
2023-02-08T01:54:16.892Z,92.12
2023-02-08T01:56:45.862Z,92.24
2023-02-08T01:59:28.422Z,92.65
2023-02-08T02:01:56.999Z,92.25
2023-02-08T02:04:25.481Z,92.04
2023-02-08T02:06:57.533Z,92.20
2023-02-08T02:09:47.769Z,92.28
2023-02-08T02:12:14.688Z,91.84
2023-02-08T02:14:42.948Z,92.01
2023-02-08T02:17:12.203Z,92.09
2023-02-08T02:20:06.746Z,91.61
2023-02-08T02:23:13.728Z,91.90
2023-02-08T02:26:24.226Z,91.72
2023-02-08T02:29:13.727Z,92.18
2023-02-08T02:31:52.507Z,92.00
2023-02-08T02:34:41.407Z,91.81
2023-02-08T02:37:56.257Z,91.75
2023-02-08T02:40:41.118Z,91.90
2023-02-08T02:43:40.491Z,91.82
2023-02-08T02:46:22.320Z,91.92
2023-02-08T02:48:55.142Z,91.67
2023-02-08T02:51:43.344Z,91.58
2023-02-08T02:54:21.161Z,91.50
2023-02-08T02:56:52.075Z,91.21
2023-02-08T02:59:20.162Z,90.77
2023-02-08T03:01:48.675Z,91.07
2023-02-08T03:04:39.213Z,91.39
2023-02-08T03:07:28.535Z,91.04
2023-02-08T03:10:22.862Z,91.21
2023-02-08T03:13:08.348Z,91.38
2023-02-08T03:16:01.728Z,91.27
2023-02-08T03:18:58.968Z,91.19
2023-02-08T03:21:43.424Z,90.91
2023-02-08T03:24:29.275Z,91.13
2023-02-08T03:27:31.052Z,91.48
2023-02-08T03:30:03.620Z,91.22
2023-02-08T03:32:40.255Z,91.37
2023-02-08T03:35:34.171Z,91.28
2023-02-08T03:38:05.356Z,91.18
2023-02-08T03:40:37.619Z,90.89
2023-02-08T03:43:11.916Z,91.03
2023-02-08T03:45:46.364Z,90.77
2023-02-08T03:48:16.847Z,90.77
2023-02-08T03:50:48.220Z,90.90
2023-02-08T03:53:19.141Z,90.89
2023-02-08T03:55:48.472Z,90.65
2023-02-08T03:58:42.927Z,90.99
2023-02-08T04:01:17.749Z,91.02
2023-02-08T04:03:46.382Z,91.05
2023-02-08T04:06:13.514Z,90.84
2023-02-08T04:08:40.158Z,90.99
2023-02-08T04:11:06.641Z,90.90
2023-02-08T04:13:33.271Z,90.74
2023-02-08T04:15:59.794Z,90.86
2023-02-08T04:18:27.705Z,90.60
2023-02-08T04:20:54.243Z,90.57
2023-02-08T04:23:20.867Z,90.46
2023-02-08T04:25:47.332Z,90.25
2023-02-08T04:28:13.874Z,90.15
2023-02-08T04:30:40.804Z,89.91
2023-02-08T04:33:07.533Z,89.98
2023-02-08T04:35:34.295Z,90.32
2023-02-08T04:38:00.792Z,90.05
2023-02-08T04:40:27.334Z,90.18
2023-02-08T04:42:53.826Z,90.16
2023-02-08T04:45:20.594Z,90.22
2023-02-08T04:47:54.371Z,90.24
2023-02-08T04:50:21.403Z,90.12
2023-02-08T04:52:47.901Z,90.06
2023-02-08T04:55:14.496Z,90.27
2023-02-08T04:57:41.329Z,89.93
2023-02-08T05:00:08.668Z,90.19
2023-02-08T05:02:35.646Z,90.51
2023-02-08T05:05:02.245Z,90.83
2023-02-08T05:07:28.773Z,90.36
2023-02-08T05:09:55.212Z,90.30
2023-02-08T05:12:21.690Z,90.78
2023-02-08T05:14:48.120Z,90.32
2023-02-08T05:17:14.665Z,90.50
2023-02-08T05:19:41.700Z,90.50
2023-02-08T05:22:08.466Z,90.62
2023-02-08T05:24:35.033Z,90.78
2023-02-08T05:27:01.547Z,90.57
2023-02-08T05:29:28.164Z,90.23
2023-02-08T05:31:54.778Z,90.24
2023-02-08T05:34:21.276Z,90.26
2023-02-08T05:36:47.722Z,90.07
2023-02-08T05:39:14.354Z,90.25
2023-02-08T05:41:40.810Z,90.04
2023-02-08T05:44:07.262Z,89.94
2023-02-08T05:46:38.001Z,90.04
2023-02-08T05:49:04.841Z,89.82
2023-02-08T05:51:32.575Z,89.90
2023-02-08T05:53:59.177Z,89.91
2023-02-08T05:56:25.692Z,89.40
2023-02-08T05:58:52.164Z,89.57
2023-02-08T06:01:18.842Z,89.93
2023-02-08T06:03:45.536Z,89.58
2023-02-08T06:06:12.078Z,89.82
2023-02-08T06:08:39.419Z,89.73
2023-02-08T06:11:06.811Z,89.69
2023-02-08T06:13:33.355Z,89.96
2023-02-08T06:15:59.858Z,89.58
2023-02-08T06:18:27.184Z,89.29
2023-02-08T06:20:54.904Z,89.17
2023-02-08T06:23:22.090Z,89.09
2023-02-08T06:25:48.580Z,89.06
2023-02-08T06:28:15.113Z,88.85
2023-02-08T06:30:43.372Z,88.91
2023-02-08T06:33:10.095Z,88.64
2023-02-08T06:35:36.648Z,88.49
2023-02-08T06:38:03.166Z,88.69
2023-02-08T06:40:29.660Z,88.33
2023-02-08T06:42:56.567Z,89.18
2023-02-08T06:45:23.110Z,88.54
2023-02-08T06:47:49.548Z,88.79
2023-02-08T06:50:16.156Z,88.42
2023-02-08T06:52:42.659Z,88.72
2023-02-08T06:55:09.266Z,88.49
2023-02-08T06:57:36.094Z,88.33
2023-02-08T07:00:04.270Z,88.66
2023-02-08T07:02:31.118Z,88.67
2023-02-08T07:04:57.673Z,88.83
2023-02-08T07:07:24.257Z,88.36
2023-02-08T07:09:50.765Z,88.33
2023-02-08T07:12:17.273Z,88.14
2023-02-08T07:14:44.173Z,87.83
2023-02-08T07:17:12.046Z,87.84
2023-02-08T07:19:39.011Z,87.51
2023-02-08T07:22:08.902Z,87.21
2023-02-08T07:24:38.686Z,87.24
2023-02-08T07:27:07.138Z,86.90
2023-02-08T07:29:34.587Z,86.64
2023-02-08T07:32:03.559Z,86.79
2023-02-08T07:34:32.827Z,86.70
2023-02-08T07:36:59.404Z,86.04
2023-02-08T07:39:26.474Z,86.74
2023-02-08T07:41:53.170Z,86.74
2023-02-08T07:44:20.225Z,86.95
2023-02-08T07:46:46.667Z,87.01
2023-02-08T07:49:13.176Z,87.40
2023-02-08T07:51:39.649Z,87.80
2023-02-08T07:54:06.314Z,88.24
2023-02-08T07:56:32.920Z,88.54
2023-02-08T07:58:59.547Z,88.33
2023-02-08T08:01:26.158Z,88.66
2023-02-08T08:03:53.259Z,88.68
2023-02-08T08:06:21.950Z,88.83
2023-02-08T08:08:49.194Z,89.19
2023-02-08T08:11:17.679Z,89.11
2023-02-08T08:13:44.194Z,89.48
2023-02-08T08:16:10.730Z,89.73
2023-02-08T08:18:37.238Z,89.33
2023-02-08T08:21:04.781Z,89.96
2023-02-08T08:23:33.190Z,89.59
2023-02-08T08:26:00.725Z,89.50
2023-02-08T08:28:28.058Z,89.38
2023-02-08T08:30:54.874Z,89.60
2023-02-08T08:33:21.483Z,89.70
2023-02-08T08:35:48.120Z,89.54
2023-02-08T08:38:14.673Z,89.49
2023-02-08T08:40:41.448Z,89.44
2023-02-08T08:43:08.228Z,89.51
2023-02-08T08:45:36.180Z,89.58
2023-02-08T08:48:05.670Z,89.74
2023-02-08T08:50:32.228Z,89.18
2023-02-08T08:52:58.699Z,89.40
2023-02-08T08:55:26.185Z,89.27
2023-02-08T08:57:53.583Z,89.44
2023-02-08T09:00:20.180Z,88.95
2023-02-08T09:02:46.636Z,88.66
2023-02-08T09:05:13.144Z,88.73
2023-02-08T09:07:39.624Z,88.74
2023-02-08T09:10:06.470Z,88.77
2023-02-08T09:12:33.038Z,88.68
2023-02-08T09:15:00.942Z,88.40
2023-02-08T09:17:27.609Z,88.21
2023-02-08T09:19:54.127Z,87.11
2023-02-08T09:22:20.769Z,87.28
2023-02-08T09:24:47.410Z,87.17
2023-02-08T09:27:14.828Z,86.58
2023-02-08T09:29:41.478Z,86.02
2023-02-08T09:32:10.158Z,85.72
2023-02-08T09:34:37.002Z,84.77
2023-02-08T09:37:03.438Z,84.85
2023-02-08T09:39:30.048Z,84.54
2023-02-08T09:42:11.288Z,84.26
2023-02-08T09:45:04.797Z,83.84
2023-02-08T09:47:36.931Z,83.54
2023-02-08T09:50:20.686Z,82.94
2023-02-08T09:53:00.247Z,83.41
2023-02-08T09:55:39.626Z,82.91
2023-02-08T09:58:35.839Z,83.21
2023-02-08T10:01:05.935Z,82.59
2023-02-08T10:03:42.462Z,82.67
2023-02-08T10:06:13.000Z,82.53
2023-02-08T10:08:40.696Z,82.89
2023-02-08T10:11:43.195Z,82.77
2023-02-08T10:14:40.114Z,82.57
2023-02-08T10:17:26.628Z,82.16
2023-02-08T10:20:28.543Z,81.64
2023-02-08T10:23:19.372Z,81.10
2023-02-08T10:26:15.774Z,80.93
2023-02-08T10:28:56.568Z,80.86
2023-02-08T10:32:01.710Z,80.48
2023-02-08T10:34:44.251Z,80.10
2023-02-08T10:37:12.964Z,79.88
2023-02-08T10:39:39.958Z,80.04
2023-02-08T10:42:19.631Z,80.39
2023-02-08T10:45:23.869Z,80.08
2023-02-08T10:47:54.693Z,80.10
2023-02-08T10:50:39.211Z,79.53
2023-02-08T10:53:06.522Z,79.54
2023-02-08T10:55:36.628Z,79.62
2023-02-08T10:58:06.151Z,79.18
2023-02-08T11:00:36.714Z,79.22
2023-02-08T11:03:21.778Z,78.32
2023-02-08T11:05:49.364Z,77.85
2023-02-08T11:08:22.683Z,77.56
2023-02-08T11:11:05.083Z,77.56
2023-02-08T11:13:42.631Z,77.17
2023-02-08T11:16:20.188Z,77.04
2023-02-08T11:18:52.142Z,76.64
2023-02-08T11:21:24.946Z,76.96
2023-02-08T11:23:53.828Z,76.96
2023-02-08T11:26:25.322Z,76.85
2023-02-08T11:29:06.071Z,77.80
2023-02-08T11:31:35.242Z,77.83
2023-02-08T11:34:09.621Z,77.82
2023-02-08T11:36:38.324Z,77.47
2023-02-08T11:39:23.146Z,77.38
2023-02-08T11:41:53.566Z,77.41
2023-02-08T11:44:27.950Z,77.01
2023-02-08T11:46:56.549Z,76.35
2023-02-08T11:49:26.074Z,75.28
2023-02-08T11:51:53.231Z,74.61
2023-02-08T11:54:41.388Z,73.29
2023-02-08T11:57:20.619Z,73.18
2023-02-08T11:59:48.550Z,72.72
2023-02-08T12:02:31.213Z,72.17
2023-02-08T12:04:59.015Z,72.04
2023-02-08T12:07:49.393Z,71.32
2023-02-08T12:10:30.859Z,70.04
2023-02-08T12:13:24.033Z,69.95
2023-02-08T12:16:06.131Z,70.07
2023-02-08T12:18:51.233Z,68.93
2023-02-08T12:21:21.916Z,69.06
2023-02-08T12:23:53.044Z,68.37
2023-02-08T12:26:42.081Z,68.11
2023-02-08T12:29:47.677Z,66.34
2023-02-08T12:32:42.733Z,66.43
2023-02-08T12:35:45.825Z,67.01
2023-02-08T12:38:55.400Z,65.70
2023-02-08T12:41:39.302Z,63.83
2023-02-08T12:44:41.210Z,64.41
2023-02-08T12:47:27.566Z,65.58
2023-02-08T12:50:23.951Z,64.60
2023-02-08T12:52:57.231Z,63.25
2023-02-08T12:55:26.364Z,63.67
2023-02-08T12:57:57.225Z,62.35
2023-02-08T13:00:32.637Z,63.26
2023-02-08T13:03:17.599Z,64.00
2023-02-08T13:06:01.775Z,63.98
2023-02-08T13:08:31.853Z,61.77
2023-02-08T13:11:17.868Z,61.92
2023-02-08T13:14:03.334Z,62.65
2023-02-08T13:16:40.377Z,62.54
2023-02-08T13:19:18.677Z,62.01
2023-02-08T13:21:46.128Z,61.63
2023-02-08T13:24:27.760Z,61.94
2023-02-08T13:26:54.277Z,61.98
2023-02-08T13:29:23.115Z,62.21
2023-02-08T13:31:56.640Z,60.93
2023-02-08T13:34:37.048Z,60.18
2023-02-08T13:37:16.640Z,61.55
2023-02-08T13:39:48.211Z,61.54
2023-02-08T13:42:33.576Z,61.79
2023-02-08T13:45:01.356Z,61.42
2023-02-08T13:47:32.806Z,60.13
2023-02-08T13:50:01.769Z,59.95
2023-02-08T13:52:47.143Z,59.33
2023-02-08T13:55:38.220Z,58.77
2023-02-08T13:58:34.314Z,59.55
2023-02-08T14:01:12.876Z,59.78
2023-02-08T14:03:39.363Z,59.99
2023-02-08T14:06:29.472Z,59.12
2023-02-08T14:09:17.394Z,60.63
2023-02-08T14:12:00.615Z,60.55
2023-02-08T14:14:31.263Z,60.99
2023-02-08T14:17:28.920Z,61.13
2023-02-08T14:20:01.677Z,60.59
2023-02-08T14:22:36.110Z,60.27
2023-02-08T14:25:07.940Z,60.72
2023-02-08T14:27:44.823Z,62.15
2023-02-08T14:30:11.671Z,62.12
2023-02-08T14:32:40.816Z,63.17
2023-02-08T14:35:07.492Z,63.34
2023-02-08T14:37:36.419Z,64.26
2023-02-08T14:40:23.598Z,63.60
2023-02-08T14:43:02.173Z,63.42
2023-02-08T14:45:39.989Z,63.86
2023-02-08T14:48:48.426Z,64.50
2023-02-08T14:51:28.126Z,64.67
2023-02-08T14:53:58.522Z,64.75
2023-02-08T14:56:31.921Z,65.02
2023-02-08T14:59:04.421Z,65.03
2023-02-08T15:01:45.419Z,65.50
2023-02-08T15:04:14.229Z,65.29
2023-02-08T15:07:13.425Z,65.59
2023-02-08T15:09:42.465Z,65.84
2023-02-08T15:12:17.583Z,66.26
2023-02-08T15:14:44.257Z,66.38
2023-02-08T15:17:24.525Z,66.46
2023-02-08T15:19:52.333Z,66.79
2023-02-08T15:22:39.756Z,67.49
2023-02-08T15:25:30.091Z,67.23
2023-02-08T15:28:01.831Z,67.93
2023-02-08T15:30:35.061Z,67.77
2023-02-08T15:33:08.400Z,68.40
2023-02-08T15:35:35.928Z,68.28
2023-02-08T15:38:06.995Z,68.88
2023-02-08T15:40:35.074Z,69.14
2023-02-08T15:43:12.468Z,68.96
2023-02-08T15:45:39.433Z,69.39
2023-02-08T15:48:07.512Z,69.70
2023-02-08T15:50:35.829Z,69.67
2023-02-08T15:53:06.154Z,69.97
2023-02-08T15:55:44.271Z,70.25
2023-02-08T15:58:31.820Z,71.01
2023-02-08T16:01:00.622Z,70.81
2023-02-08T16:03:29.429Z,70.96
2023-02-08T16:05:59.757Z,71.02
2023-02-08T16:08:30.595Z,71.50
2023-02-08T16:11:04.395Z,71.65
2023-02-08T16:13:35.046Z,71.85
2023-02-08T16:16:15.706Z,72.15
2023-02-08T16:18:58.257Z,72.67
2023-02-08T16:21:24.680Z,72.96
2023-02-08T16:24:05.111Z,73.39
2023-02-08T16:26:36.538Z,74.01
2023-02-08T16:29:09.644Z,73.93
2023-02-08T16:31:36.539Z,74.44
2023-02-08T16:34:06.412Z,75.00
2023-02-08T16:36:40.397Z,75.71
2023-02-08T16:39:22.512Z,75.75
2023-02-08T16:42:16.034Z,76.05
2023-02-08T16:45:02.860Z,76.85
2023-02-08T16:47:38.319Z,76.80
2023-02-08T16:50:10.951Z,77.52
2023-02-08T16:52:37.531Z,77.63
2023-02-08T16:55:05.346Z,78.51
2023-02-08T16:57:47.378Z,78.38
2023-02-08T17:00:26.093Z,79.05
2023-02-08T17:02:54.216Z,79.35
2023-02-08T17:05:27.186Z,79.35
2023-02-08T17:07:55.095Z,79.36
2023-02-08T17:10:32.681Z,79.79
2023-02-08T17:13:19.389Z,80.12
2023-02-08T17:15:51.606Z,80.35
2023-02-08T17:18:22.581Z,80.56
2023-02-08T17:20:49.111Z,81.07
2023-02-08T17:23:15.848Z,80.71
2023-02-08T17:25:43.478Z,81.03
2023-02-08T17:28:18.701Z,81.19
2023-02-08T17:30:46.862Z,81.46
2023-02-08T17:33:19.826Z,81.60
2023-02-08T17:35:50.852Z,81.43
2023-02-08T17:38:19.090Z,81.24
2023-02-08T17:40:46.160Z,81.67
2023-02-08T17:43:14.917Z,81.72
2023-02-08T17:45:43.755Z,81.49
2023-02-08T17:48:13.299Z,81.59
2023-02-08T17:50:42.825Z,81.49
2023-02-08T17:53:09.926Z,81.81
2023-02-08T17:55:36.415Z,81.64
2023-02-08T17:58:02.956Z,81.78
2023-02-08T18:00:29.415Z,81.77
2023-02-08T18:03:00.477Z,81.31
2023-02-08T18:05:27.757Z,81.39
2023-02-08T18:07:56.144Z,81.54
2023-02-08T18:10:24.386Z,81.55
2023-02-08T18:12:51.301Z,81.57
2023-02-08T18:15:20.673Z,81.60
2023-02-08T18:17:48.416Z,81.68
2023-02-08T18:20:16.115Z,81.68
2023-02-08T18:22:43.473Z,82.04
2023-02-08T18:25:11.648Z,81.86
2023-02-08T18:27:38.718Z,81.84
2023-02-08T18:30:05.828Z,81.74
2023-02-08T18:32:32.334Z,81.70
2023-02-08T18:34:58.869Z,81.77
2023-02-08T18:37:27.450Z,81.86
2023-02-08T18:39:54.008Z,81.70
2023-02-08T18:42:20.501Z,81.71
2023-02-08T18:44:48.856Z,81.69
2023-02-08T18:47:15.420Z,81.78
2023-02-08T18:49:41.956Z,81.73
2023-02-08T18:52:13.751Z,81.77
2023-02-08T18:54:41.301Z,81.78
2023-02-08T18:57:11.472Z,81.45
2023-02-08T18:59:39.406Z,80.96
2023-02-08T19:02:07.763Z,81.23
2023-02-08T19:04:41.991Z,80.91
2023-02-08T19:07:09.160Z,81.16
2023-02-08T19:09:39.488Z,80.69
2023-02-08T19:12:09.176Z,80.50
2023-02-08T19:14:35.932Z,80.29
2023-02-08T19:17:03.074Z,80.77
2023-02-08T19:19:29.816Z,80.33
2023-02-08T19:21:56.357Z,80.64
2023-02-08T19:24:23.129Z,80.34
2023-02-08T19:26:49.702Z,80.29
2023-02-08T19:29:21.778Z,80.39
2023-02-08T19:31:50.340Z,80.75
2023-02-08T19:34:17.818Z,80.46
2023-02-08T19:36:47.080Z,80.53
2023-02-08T19:39:22.435Z,80.83
2023-02-08T19:41:52.949Z,80.58
2023-02-08T19:44:20.542Z,80.86
2023-02-08T19:46:53.830Z,80.82
2023-02-08T19:49:25.662Z,80.55
2023-02-08T19:51:52.419Z,81.06
2023-02-08T19:54:19.663Z,81.29
2023-02-08T19:56:46.786Z,80.67
2023-02-08T19:59:19.209Z,81.15
2023-02-08T20:01:46.374Z,81.00
2023-02-08T20:04:14.573Z,80.89
2023-02-08T20:06:42.744Z,80.75
2023-02-08T20:09:09.276Z,80.92
2023-02-08T20:11:51.274Z,80.77
2023-02-08T20:14:25.456Z,80.76
2023-02-08T20:16:52.512Z,80.75
2023-02-08T20:19:19.043Z,80.40
2023-02-08T20:21:45.686Z,80.72
2023-02-08T20:24:12.197Z,80.87
2023-02-08T20:26:40.723Z,80.89
2023-02-08T20:29:08.327Z,81.20
2023-02-08T20:31:40.305Z,81.35
2023-02-08T20:34:09.628Z,81.77
2023-02-08T20:36:40.676Z,81.49
2023-02-08T20:39:09.289Z,81.80
2023-02-08T20:41:36.181Z,82.00
2023-02-08T20:44:02.673Z,82.11
2023-02-08T20:46:32.665Z,81.96
2023-02-08T20:49:00.898Z,82.33
2023-02-08T20:51:29.017Z,82.66
2023-02-08T20:53:59.117Z,82.29
2023-02-08T20:56:31.157Z,82.33
2023-02-08T20:59:06.481Z,82.25
2023-02-08T21:01:35.137Z,82.67
2023-02-08T21:04:02.596Z,82.84
2023-02-08T21:06:31.800Z,82.68
2023-02-08T21:09:00.443Z,82.43
2023-02-08T21:11:29.494Z,82.21
2023-02-08T21:13:56.819Z,82.02
2023-02-08T21:16:24.248Z,82.12
2023-02-08T21:18:51.158Z,82.05
2023-02-08T21:21:18.745Z,82.20
2023-02-08T21:23:46.095Z,81.56
2023-02-08T21:26:17.510Z,81.91
2023-02-08T21:28:44.559Z,82.18
2023-02-08T21:31:15.392Z,82.12
2023-02-08T21:33:43.493Z,81.88
2023-02-08T21:36:14.298Z,82.19
2023-02-08T21:38:41.209Z,82.39
2023-02-08T21:41:14.171Z,82.33
2023-02-08T21:43:40.741Z,82.41
2023-02-08T21:46:08.754Z,82.63
2023-02-08T21:48:55.513Z,82.35
2023-02-08T21:51:43.064Z,82.24
2023-02-08T21:54:30.464Z,81.79
2023-02-08T21:57:04.227Z,82.27
2023-02-08T21:59:35.202Z,82.35
2023-02-08T22:02:01.800Z,82.42
2023-02-08T22:04:28.378Z,82.42
2023-02-08T22:06:55.044Z,82.69
2023-02-08T22:09:21.452Z,83.20
2023-02-08T22:11:49.228Z,83.42
2023-02-08T22:14:16.034Z,83.57
2023-02-08T22:16:44.098Z,83.64
2023-02-08T22:19:10.555Z,83.60
2023-02-08T22:21:37.209Z,83.86
2023-02-08T22:24:03.859Z,83.68
2023-02-08T22:26:30.621Z,83.85
2023-02-08T22:28:57.105Z,83.96
2023-02-08T22:31:23.993Z,84.05
2023-02-08T22:33:53.424Z,84.04
2023-02-08T22:36:20.933Z,84.00
2023-02-08T22:38:47.694Z,83.93
2023-02-08T22:41:16.682Z,84.14
2023-02-08T22:43:43.724Z,84.35
2023-02-08T22:46:10.373Z,84.92
2023-02-08T22:48:37.607Z,84.57
2023-02-08T22:51:13.723Z,84.47
2023-02-08T22:53:40.705Z,85.00
2023-02-08T22:56:07.267Z,84.94
2023-02-08T22:58:34.057Z,85.22
2023-02-08T23:01:00.595Z,85.37
2023-02-08T23:03:27.366Z,85.28
2023-02-08T23:05:54.743Z,85.83
2023-02-08T23:08:22.552Z,85.51
2023-02-08T23:10:49.381Z,85.31
2023-02-08T23:13:16.227Z,85.72
2023-02-08T23:15:44.918Z,86.25
2023-02-08T23:18:11.648Z,86.15
2023-02-08T23:20:40.731Z,86.24
2023-02-08T23:23:08.677Z,86.45
2023-02-08T23:25:38.622Z,86.63
2023-02-08T23:28:05.805Z,87.02
2023-02-08T23:30:32.342Z,87.22
2023-02-08T23:32:58.849Z,86.89
2023-02-08T23:35:25.590Z,87.09
2023-02-08T23:37:52.230Z,87.30
2023-02-08T23:40:18.735Z,86.97
2023-02-08T23:42:45.242Z,86.86
2023-02-08T23:45:11.941Z,86.80
2023-02-08T23:47:39.530Z,86.98
2023-02-08T23:50:07.900Z,86.78
2023-02-08T23:52:35.836Z,86.92
2023-02-08T23:55:03.428Z,87.03
2023-02-08T23:57:36.975Z,87.07
